sensor_id;sensor_type;location;lat;lon;timestamp;P1;durP1;ratioP1;P2;durP2;ratioP2
47329;SDS011;33060;50.178;7.570;2022-07-22T00:02:04;9.00;;;8.00;;
47329;SDS011;33060;50.178;7.570;2022-07-22T00:04:31;10.68;;;8.80;;
47329;SDS011;33060;50.178;7.570;2022-07-22T00:06:58;9.50;;;8.43;;
47329;SDS011;33060;50.178;7.570;2022-07-22T00:09:25;9.18;;;8.15;;
47329;SDS011;33060;50.178;7.570;2022-07-22T00:11:51;11.90;;;8.43;;
47329;SDS011;33060;50.178;7.570;2022-07-22T00:14:18;9.20;;;8.00;;
47329;SDS011;33060;50.178;7.570;2022-07-22T00:16:45;9.60;;;8.70;;
47329;SDS011;33060;50.178;7.570;2022-07-22T00:19:12;9.70;;;8.38;;
47329;SDS011;33060;50.178;7.570;2022-07-22T00:21:39;11.05;;;8.70;;
47329;SDS011;33060;50.178;7.570;2022-07-22T00:24:06;10.02;;;9.02;;
47329;SDS011;33060;50.178;7.570;2022-07-22T00:26:32;11.98;;;8.77;;
47329;SDS011;33060;50.178;7.570;2022-07-22T00:29:00;10.63;;;8.90;;
47329;SDS011;33060;50.178;7.570;2022-07-22T00:31:26;13.05;;;9.18;;
47329;SDS011;33060;50.178;7.570;2022-07-22T00:33:53;9.27;;;8.38;;
47329;SDS011;33060;50.178;7.570;2022-07-22T00:36:20;9.32;;;8.52;;
47329;SDS011;33060;50.178;7.570;2022-07-22T00:38:47;11.05;;;8.43;;
47329;SDS011;33060;50.178;7.570;2022-07-22T00:41:13;11.10;;;9.05;;
47329;SDS011;33060;50.178;7.570;2022-07-22T00:46:25;10.02;;;9.02;;
47329;SDS011;33060;50.178;7.570;2022-07-22T00:48:53;12.98;;;9.25;;
47329;SDS011;33060;50.178;7.570;2022-07-22T00:51:22;11.65;;;9.35;;
47329;SDS011;33060;50.178;7.570;2022-07-22T00:53:50;11.23;;;8.98;;
47329;SDS011;33060;50.178;7.570;2022-07-22T00:56:18;12.55;;;10.10;;
47329;SDS011;33060;50.178;7.570;2022-07-22T00:58:46;9.65;;;8.73;;
47329;SDS011;33060;50.178;7.570;2022-07-22T01:01:15;11.75;;;9.10;;
47329;SDS011;33060;50.178;7.570;2022-07-22T01:03:43;10.82;;;8.65;;
47329;SDS011;33060;50.178;7.570;2022-07-22T01:06:15;10.38;;;9.02;;
47329;SDS011;33060;50.178;7.570;2022-07-22T01:08:42;12.23;;;8.98;;
47329;SDS011;33060;50.178;7.570;2022-07-22T01:11:10;11.50;;;8.45;;
47329;SDS011;33060;50.178;7.570;2022-07-22T01:13:38;10.15;;;9.13;;
47329;SDS011;33060;50.178;7.570;2022-07-22T01:16:07;9.63;;;8.63;;
47329;SDS011;33060;50.178;7.570;2022-07-22T01:18:36;12.15;;;9.20;;
47329;SDS011;33060;50.178;7.570;2022-07-22T01:21:04;10.52;;;9.05;;
47329;SDS011;33060;50.178;7.570;2022-07-22T01:23:33;9.63;;;8.63;;
47329;SDS011;33060;50.178;7.570;2022-07-22T01:26:00;11.07;;;7.50;;
47329;SDS011;33060;50.178;7.570;2022-07-22T01:28:28;10.25;;;8.35;;
47329;SDS011;33060;50.178;7.570;2022-07-22T01:30:55;9.10;;;8.20;;
47329;SDS011;33060;50.178;7.570;2022-07-22T01:33:22;10.07;;;8.05;;
47329;SDS011;33060;50.178;7.570;2022-07-22T01:35:50;11.07;;;8.05;;
47329;SDS011;33060;50.178;7.570;2022-07-22T01:38:18;9.90;;;7.97;;
47329;SDS011;33060;50.178;7.570;2022-07-22T01:40:45;8.80;;;7.65;;
47329;SDS011;33060;50.178;7.570;2022-07-22T01:43:13;9.68;;;7.28;;
47329;SDS011;33060;50.178;7.570;2022-07-22T01:45:45;8.10;;;7.28;;
47329;SDS011;33060;50.178;7.570;2022-07-22T01:48:14;8.70;;;7.80;;
47329;SDS011;33060;50.178;7.570;2022-07-22T01:50:42;9.32;;;7.75;;
47329;SDS011;33060;50.178;7.570;2022-07-22T01:53:09;8.85;;;7.88;;
47329;SDS011;33060;50.178;7.570;2022-07-22T01:55:37;9.00;;;8.10;;
47329;SDS011;33060;50.178;7.570;2022-07-22T01:58:04;9.80;;;7.88;;
47329;SDS011;33060;50.178;7.570;2022-07-22T02:00:33;10.30;;;9.07;;
47329;SDS011;33060;50.178;7.570;2022-07-22T02:03:02;9.07;;;8.15;;
47329;SDS011;33060;50.178;7.570;2022-07-22T02:05:30;9.93;;;8.10;;
47329;SDS011;33060;50.178;7.570;2022-07-22T02:08:03;10.50;;;9.07;;
47329;SDS011;33060;50.178;7.570;2022-07-22T02:10:51;12.40;;;9.50;;
47329;SDS011;33060;50.178;7.570;2022-07-22T02:13:18;12.52;;;9.85;;
47329;SDS011;33060;50.178;7.570;2022-07-22T02:15:45;12.10;;;10.73;;
47329;SDS011;33060;50.178;7.570;2022-07-22T02:18:13;13.05;;;11.65;;
47329;SDS011;33060;50.178;7.570;2022-07-22T02:20:42;12.70;;;10.98;;
47329;SDS011;33060;50.178;7.570;2022-07-22T02:23:11;13.77;;;12.35;;
47329;SDS011;33060;50.178;7.570;2022-07-22T02:25:38;14.23;;;11.05;;
47329;SDS011;33060;50.178;7.570;2022-07-22T02:28:06;12.77;;;11.43;;
47329;SDS011;33060;50.178;7.570;2022-07-22T02:30:34;12.93;;;11.38;;
47329;SDS011;33060;50.178;7.570;2022-07-22T02:33:00;13.85;;;11.60;;
47329;SDS011;33060;50.178;7.570;2022-07-22T02:35:27;12.13;;;10.90;;
47329;SDS011;33060;50.178;7.570;2022-07-22T02:37:57;12.68;;;11.40;;
47329;SDS011;33060;50.178;7.570;2022-07-22T02:40:24;12.27;;;9.82;;
47329;SDS011;33060;50.178;7.570;2022-07-22T02:42:51;12.40;;;11.15;;
47329;SDS011;33060;50.178;7.570;2022-07-22T02:45:18;11.73;;;10.20;;
47329;SDS011;33060;50.178;7.570;2022-07-22T02:47:46;11.90;;;10.70;;
47329;SDS011;33060;50.178;7.570;2022-07-22T02:50:13;11.85;;;10.70;;
47329;SDS011;33060;50.178;7.570;2022-07-22T02:52:40;10.80;;;9.70;;
47329;SDS011;33060;50.178;7.570;2022-07-22T02:55:08;11.98;;;10.20;;
47329;SDS011;33060;50.178;7.570;2022-07-22T02:57:35;11.38;;;10.15;;
47329;SDS011;33060;50.178;7.570;2022-07-22T03:00:02;11.68;;;10.13;;
47329;SDS011;33060;50.178;7.570;2022-07-22T03:02:34;14.27;;;10.27;;
47329;SDS011;33060;50.178;7.570;2022-07-22T03:05:02;11.52;;;10.32;;
47329;SDS011;33060;50.178;7.570;2022-07-22T03:07:30;11.73;;;9.75;;
47329;SDS011;33060;50.178;7.570;2022-07-22T03:09:58;10.68;;;9.45;;
47329;SDS011;33060;50.178;7.570;2022-07-22T03:12:35;11.07;;;9.98;;
47329;SDS011;33060;50.178;7.570;2022-07-22T03:15:02;12.68;;;10.18;;
47329;SDS011;33060;50.178;7.570;2022-07-22T03:17:33;11.88;;;9.20;;
47329;SDS011;33060;50.178;7.570;2022-07-22T03:20:06;10.50;;;9.15;;
47329;SDS011;33060;50.178;7.570;2022-07-22T03:22:34;9.98;;;9.00;;
47329;SDS011;33060;50.178;7.570;2022-07-22T03:25:03;11.50;;;9.43;;
47329;SDS011;33060;50.178;7.570;2022-07-22T03:27:30;10.07;;;8.90;;
47329;SDS011;33060;50.178;7.570;2022-07-22T03:29:57;11.13;;;9.63;;
47329;SDS011;33060;50.178;7.570;2022-07-22T03:32:24;11.80;;;9.63;;
47329;SDS011;33060;50.178;7.570;2022-07-22T03:34:50;11.60;;;8.82;;
47329;SDS011;33060;50.178;7.570;2022-07-22T03:37:19;10.18;;;8.93;;
47329;SDS011;33060;50.178;7.570;2022-07-22T03:39:46;9.30;;;8.40;;
47329;SDS011;33060;50.178;7.570;2022-07-22T03:42:13;9.77;;;8.68;;
47329;SDS011;33060;50.178;7.570;2022-07-22T03:44:45;11.32;;;9.18;;
47329;SDS011;33060;50.178;7.570;2022-07-22T03:47:20;11.68;;;9.38;;
47329;SDS011;33060;50.178;7.570;2022-07-22T03:49:49;9.10;;;8.30;;
47329;SDS011;33060;50.178;7.570;2022-07-22T03:52:22;10.13;;;8.88;;
47329;SDS011;33060;50.178;7.570;2022-07-22T03:54:49;9.35;;;8.27;;
47329;SDS011;33060;50.178;7.570;2022-07-22T03:57:16;9.00;;;8.10;;
47329;SDS011;33060;50.178;7.570;2022-07-22T03:59:43;9.60;;;8.48;;
47329;SDS011;33060;50.178;7.570;2022-07-22T04:02:10;8.60;;;7.70;;
47329;SDS011;33060;50.178;7.570;2022-07-22T04:04:37;8.73;;;7.80;;
47329;SDS011;33060;50.178;7.570;2022-07-22T04:07:04;9.88;;;8.23;;
47329;SDS011;33060;50.178;7.570;2022-07-22T04:09:34;8.80;;;7.90;;
47329;SDS011;33060;50.178;7.570;2022-07-22T04:12:02;8.73;;;7.82;;
47329;SDS011;33060;50.178;7.570;2022-07-22T04:14:33;9.18;;;8.27;;
47329;SDS011;33060;50.178;7.570;2022-07-22T04:16:59;8.65;;;7.50;;
47329;SDS011;33060;50.178;7.570;2022-07-22T04:19:26;9.00;;;8.02;;
47329;SDS011;33060;50.178;7.570;2022-07-22T04:21:55;8.50;;;7.70;;
47329;SDS011;33060;50.178;7.570;2022-07-22T04:24:25;9.43;;;8.07;;
47329;SDS011;33060;50.178;7.570;2022-07-22T04:26:52;8.35;;;7.40;;
47329;SDS011;33060;50.178;7.570;2022-07-22T04:29:20;8.57;;;7.68;;
47329;SDS011;33060;50.178;7.570;2022-07-22T04:31:46;8.00;;;7.13;;
47329;SDS011;33060;50.178;7.570;2022-07-22T04:34:16;8.85;;;7.82;;
47329;SDS011;33060;50.178;7.570;2022-07-22T04:36:43;9.23;;;8.13;;
47329;SDS011;33060;50.178;7.570;2022-07-22T04:39:09;9.05;;;8.15;;
47329;SDS011;33060;50.178;7.570;2022-07-22T04:41:42;11.55;;;8.73;;
47329;SDS011;33060;50.178;7.570;2022-07-22T04:44:12;9.75;;;8.50;;
47329;SDS011;33060;50.178;7.570;2022-07-22T04:46:39;9.32;;;8.15;;
47329;SDS011;33060;50.178;7.570;2022-07-22T04:49:06;8.88;;;7.97;;
47329;SDS011;33060;50.178;7.570;2022-07-22T04:51:33;8.68;;;7.78;;
47329;SDS011;33060;50.178;7.570;2022-07-22T04:54:04;9.80;;;8.77;;
47329;SDS011;33060;50.178;7.570;2022-07-22T04:56:36;10.27;;;8.98;;
47329;SDS011;33060;50.178;7.570;2022-07-22T04:59:03;10.10;;;8.95;;
47329;SDS011;33060;50.178;7.570;2022-07-22T05:04:06;9.05;;;8.15;;
47329;SDS011;33060;50.178;7.570;2022-07-22T05:06:33;11.38;;;9.73;;
47329;SDS011;33060;50.178;7.570;2022-07-22T05:09:01;10.57;;;8.23;;
47329;SDS011;33060;50.178;7.570;2022-07-22T05:11:30;10.10;;;9.10;;
47329;SDS011;33060;50.178;7.570;2022-07-22T05:13:57;9.93;;;8.35;;
47329;SDS011;33060;50.178;7.570;2022-07-22T05:16:24;9.38;;;8.48;;
47329;SDS011;33060;50.178;7.570;2022-07-22T05:18:51;11.48;;;9.43;;
47329;SDS011;33060;50.178;7.570;2022-07-22T05:21:19;10.63;;;8.77;;
47329;SDS011;33060;50.178;7.570;2022-07-22T05:23:46;10.35;;;8.77;;
47329;SDS011;33060;50.178;7.570;2022-07-22T05:26:14;10.10;;;8.68;;
47329;SDS011;33060;50.178;7.570;2022-07-22T05:28:41;9.00;;;8.02;;
47329;SDS011;33060;50.178;7.570;2022-07-22T05:31:07;8.75;;;7.88;;
47329;SDS011;33060;50.178;7.570;2022-07-22T05:33:36;9.88;;;8.18;;
47329;SDS011;33060;50.178;7.570;2022-07-22T05:36:06;9.30;;;7.85;;
47329;SDS011;33060;50.178;7.570;2022-07-22T05:38:42;8.68;;;7.78;;
47329;SDS011;33060;50.178;7.570;2022-07-22T05:41:09;8.73;;;7.63;;
47329;SDS011;33060;50.178;7.570;2022-07-22T05:43:37;8.15;;;7.22;;
47329;SDS011;33060;50.178;7.570;2022-07-22T05:46:04;10.02;;;7.90;;
47329;SDS011;33060;50.178;7.570;2022-07-22T05:48:33;9.25;;;6.80;;
47329;SDS011;33060;50.178;7.570;2022-07-22T05:51:01;8.27;;;7.43;;
47329;SDS011;33060;50.178;7.570;2022-07-22T05:53:30;8.27;;;7.38;;
47329;SDS011;33060;50.178;7.570;2022-07-22T05:55:57;10.50;;;7.75;;
47329;SDS011;33060;50.178;7.570;2022-07-22T05:58:32;9.07;;;7.93;;
47329;SDS011;33060;50.178;7.570;2022-07-22T06:00:59;9.85;;;8.45;;
47329;SDS011;33060;50.178;7.570;2022-07-22T06:03:26;9.98;;;8.20;;
47329;SDS011;33060;50.178;7.570;2022-07-22T06:05:52;9.65;;;8.65;;
47329;SDS011;33060;50.178;7.570;2022-07-22T06:08:19;9.10;;;8.20;;
47329;SDS011;33060;50.178;7.570;2022-07-22T06:10:49;9.07;;;8.18;;
47329;SDS011;33060;50.178;7.570;2022-07-22T06:13:20;10.93;;;7.90;;
47329;SDS011;33060;50.178;7.570;2022-07-22T06:15:48;9.65;;;7.82;;
47329;SDS011;33060;50.178;7.570;2022-07-22T06:18:15;11.45;;;8.23;;
47329;SDS011;33060;50.178;7.570;2022-07-22T06:20:42;12.88;;;9.25;;
47329;SDS011;33060;50.178;7.570;2022-07-22T06:23:09;10.80;;;9.77;;
47329;SDS011;33060;50.178;7.570;2022-07-22T06:25:36;11.45;;;8.98;;
47329;SDS011;33060;50.178;7.570;2022-07-22T06:28:17;10.05;;;8.95;;
47329;SDS011;33060;50.178;7.570;2022-07-22T06:30:43;10.60;;;8.35;;
47329;SDS011;33060;50.178;7.570;2022-07-22T06:33:12;9.82;;;8.75;;
47329;SDS011;33060;50.178;7.570;2022-07-22T06:35:39;11.77;;;8.43;;
47329;SDS011;33060;50.178;7.570;2022-07-22T06:38:09;10.68;;;8.70;;
47329;SDS011;33060;50.178;7.570;2022-07-22T06:41:21;10.00;;;8.15;;
47329;SDS011;33060;50.178;7.570;2022-07-22T06:44:03;8.68;;;7.78;;
47329;SDS011;33060;50.178;7.570;2022-07-22T06:46:45;9.63;;;8.63;;
47329;SDS011;33060;50.178;7.570;2022-07-22T06:49:15;11.52;;;7.93;;
47329;SDS011;33060;50.178;7.570;2022-07-22T06:51:44;8.13;;;7.35;;
47329;SDS011;33060;50.178;7.570;2022-07-22T06:54:10;8.82;;;7.93;;
47329;SDS011;33060;50.178;7.570;2022-07-22T06:56:37;11.98;;;8.30;;
47329;SDS011;33060;50.178;7.570;2022-07-22T06:59:06;8.60;;;7.80;;
47329;SDS011;33060;50.178;7.570;2022-07-22T07:01:33;11.02;;;8.65;;
47329;SDS011;33060;50.178;7.570;2022-07-22T07:04:00;10.70;;;9.60;;
47329;SDS011;33060;50.178;7.570;2022-07-22T07:06:28;11.68;;;9.18;;
47329;SDS011;33060;50.178;7.570;2022-07-22T07:09:02;10.77;;;9.43;;
47329;SDS011;33060;50.178;7.570;2022-07-22T07:11:30;10.95;;;9.50;;
47329;SDS011;33060;50.178;7.570;2022-07-22T07:13:57;9.75;;;8.85;;
47329;SDS011;33060;50.178;7.570;2022-07-22T07:16:24;11.43;;;9.13;;
47329;SDS011;33060;50.178;7.570;2022-07-22T07:18:51;10.43;;;9.35;;
47329;SDS011;33060;50.178;7.570;2022-07-22T07:21:18;9.27;;;8.38;;
47329;SDS011;33060;50.178;7.570;2022-07-22T07:23:45;10.38;;;9.38;;
47329;SDS011;33060;50.178;7.570;2022-07-22T07:26:13;10.95;;;9.60;;
47329;SDS011;33060;50.178;7.570;2022-07-22T07:28:40;10.32;;;9.32;;
47329;SDS011;33060;50.178;7.570;2022-07-22T07:31:14;10.90;;;8.73;;
47329;SDS011;33060;50.178;7.570;2022-07-22T07:33:42;10.98;;;9.32;;
47329;SDS011;33060;50.178;7.570;2022-07-22T07:36:09;10.18;;;9.18;;
47329;SDS011;33060;50.178;7.570;2022-07-22T07:38:41;9.40;;;8.50;;
47329;SDS011;33060;50.178;7.570;2022-07-22T07:41:13;9.43;;;8.48;;
47329;SDS011;33060;50.178;7.570;2022-07-22T07:43:41;9.80;;;8.90;;
47329;SDS011;33060;50.178;7.570;2022-07-22T07:46:09;9.82;;;8.65;;
47329;SDS011;33060;50.178;7.570;2022-07-22T07:48:36;10.15;;;9.15;;
47329;SDS011;33060;50.178;7.570;2022-07-22T07:51:03;11.20;;;9.75;;
47329;SDS011;33060;50.178;7.570;2022-07-22T07:53:31;10.30;;;9.20;;
47329;SDS011;33060;50.178;7.570;2022-07-22T07:55:59;11.38;;;10.20;;
47329;SDS011;33060;50.178;7.570;2022-07-22T07:58:27;11.02;;;9.88;;
47329;SDS011;33060;50.178;7.570;2022-07-22T08:00:54;11.25;;;9.10;;
47329;SDS011;33060;50.178;7.570;2022-07-22T08:03:21;10.85;;;9.77;;
47329;SDS011;33060;50.178;7.570;2022-07-22T08:05:48;11.07;;;9.50;;
47329;SDS011;33060;50.178;7.570;2022-07-22T08:08:19;10.45;;;9.45;;
47329;SDS011;33060;50.178;7.570;2022-07-22T08:10:47;10.65;;;9.65;;
47329;SDS011;33060;50.178;7.570;2022-07-22T08:13:32;10.23;;;9.23;;
47329;SDS011;33060;50.178;7.570;2022-07-22T08:16:28;10.25;;;9.23;;
47329;SDS011;33060;50.178;7.570;2022-07-22T08:18:55;10.60;;;9.50;;
47329;SDS011;33060;50.178;7.570;2022-07-22T08:21:23;10.95;;;9.80;;
47329;SDS011;33060;50.178;7.570;2022-07-22T08:23:54;10.40;;;9.40;;
47329;SDS011;33060;50.178;7.570;2022-07-22T08:26:21;9.32;;;8.43;;
47329;SDS011;33060;50.178;7.570;2022-07-22T08:28:56;9.60;;;8.52;;
47329;SDS011;33060;50.178;7.570;2022-07-22T08:31:23;9.70;;;8.70;;
47329;SDS011;33060;50.178;7.570;2022-07-22T08:33:50;10.00;;;9.00;;
47329;SDS011;33060;50.178;7.570;2022-07-22T08:36:25;9.80;;;8.88;;
47329;SDS011;33060;50.178;7.570;2022-07-22T08:38:52;9.77;;;8.88;;
47329;SDS011;33060;50.178;7.570;2022-07-22T08:41:20;9.52;;;8.70;;
47329;SDS011;33060;50.178;7.570;2022-07-22T08:43:48;9.75;;;8.80;;
47329;SDS011;33060;50.178;7.570;2022-07-22T08:46:15;9.32;;;8.43;;
47329;SDS011;33060;50.178;7.570;2022-07-22T08:49:08;9.85;;;8.85;;
47329;SDS011;33060;50.178;7.570;2022-07-22T08:51:53;9.13;;;8.32;;
47329;SDS011;33060;50.178;7.570;2022-07-22T08:54:26;9.00;;;8.10;;
47329;SDS011;33060;50.178;7.570;2022-07-22T08:56:54;8.63;;;7.75;;
47329;SDS011;33060;50.178;7.570;2022-07-22T08:59:22;9.20;;;8.40;;
47329;SDS011;33060;50.178;7.570;2022-07-22T09:04:31;9.15;;;8.25;;
47329;SDS011;33060;50.178;7.570;2022-07-22T09:06:58;9.27;;;8.38;;
47329;SDS011;33060;50.178;7.570;2022-07-22T09:09:30;9.35;;;8.43;;
47329;SDS011;33060;50.178;7.570;2022-07-22T09:15:50;9.20;;;8.15;;
47329;SDS011;33060;50.178;7.570;2022-07-22T09:18:48;10.38;;;8.10;;
47329;SDS011;33060;50.178;7.570;2022-07-22T09:21:43;9.50;;;7.75;;
47329;SDS011;33060;50.178;7.570;2022-07-22T09:24:36;8.98;;;8.18;;
47329;SDS011;33060;50.178;7.570;2022-07-22T09:27:10;8.73;;;7.85;;
47329;SDS011;33060;50.178;7.570;2022-07-22T09:30:11;8.20;;;7.40;;
47329;SDS011;33060;50.178;7.570;2022-07-22T09:32:45;8.35;;;7.50;;
47329;SDS011;33060;50.178;7.570;2022-07-22T09:36:00;8.65;;;7.85;;
47329;SDS011;33060;50.178;7.570;2022-07-22T09:38:31;7.78;;;7.05;;
47329;SDS011;33060;50.178;7.570;2022-07-22T09:41:01;9.93;;;7.75;;
47329;SDS011;33060;50.178;7.570;2022-07-22T09:43:34;8.25;;;7.45;;
47329;SDS011;33060;50.178;7.570;2022-07-22T09:46:02;8.63;;;7.70;;
47329;SDS011;33060;50.178;7.570;2022-07-22T09:48:51;8.18;;;7.38;;
47329;SDS011;33060;50.178;7.570;2022-07-22T09:51:32;8.50;;;7.68;;
47329;SDS011;33060;50.178;7.570;2022-07-22T09:54:22;8.00;;;7.28;;
47329;SDS011;33060;50.178;7.570;2022-07-22T09:56:49;7.68;;;6.97;;
47329;SDS011;33060;50.178;7.570;2022-07-22T09:59:17;7.75;;;7.05;;
47329;SDS011;33060;50.178;7.570;2022-07-22T10:01:55;8.25;;;7.55;;
47329;SDS011;33060;50.178;7.570;2022-07-22T10:04:25;7.88;;;7.18;;
47329;SDS011;33060;50.178;7.570;2022-07-22T10:06:57;7.70;;;6.93;;
47329;SDS011;33060;50.178;7.570;2022-07-22T10:09:30;7.55;;;6.85;;
47329;SDS011;33060;50.178;7.570;2022-07-22T10:11:57;7.32;;;6.63;;
47329;SDS011;33060;50.178;7.570;2022-07-22T10:14:24;7.57;;;6.88;;
47329;SDS011;33060;50.178;7.570;2022-07-22T10:16:56;6.95;;;6.35;;
47329;SDS011;33060;50.178;7.570;2022-07-22T10:19:32;6.95;;;6.35;;
47329;SDS011;33060;50.178;7.570;2022-07-22T10:21:58;7.32;;;6.63;;
47329;SDS011;33060;50.178;7.570;2022-07-22T10:24:25;7.35;;;6.55;;
47329;SDS011;33060;50.178;7.570;2022-07-22T10:26:55;7.57;;;6.88;;
47329;SDS011;33060;50.178;7.570;2022-07-22T10:29:31;8.07;;;6.93;;
47329;SDS011;33060;50.178;7.570;2022-07-22T10:37:45;7.68;;;6.93;;
47329;SDS011;33060;50.178;7.570;2022-07-22T10:40:11;8.13;;;7.32;;
47329;SDS011;33060;50.178;7.570;2022-07-22T10:45:33;8.13;;;6.78;;
47329;SDS011;33060;50.178;7.570;2022-07-22T10:48:03;7.65;;;6.95;;
47329;SDS011;33060;50.178;7.570;2022-07-22T10:53:13;7.55;;;6.75;;
47329;SDS011;33060;50.178;7.570;2022-07-22T11:01:03;7.57;;;6.88;;
47329;SDS011;33060;50.178;7.570;2022-07-22T11:03:32;7.38;;;6.70;;
47329;SDS011;33060;50.178;7.570;2022-07-22T11:09:06;7.47;;;6.78;;
47329;SDS011;33060;50.178;7.570;2022-07-22T11:14:23;7.55;;;6.78;;
47329;SDS011;33060;50.178;7.570;2022-07-22T11:16:54;7.70;;;6.78;;
47329;SDS011;33060;50.178;7.570;2022-07-22T11:19:24;7.80;;;7.10;;
47329;SDS011;33060;50.178;7.570;2022-07-22T11:21:54;7.40;;;6.70;;
47329;SDS011;33060;50.178;7.570;2022-07-22T11:24:23;8.50;;;6.50;;
47329;SDS011;33060;50.178;7.570;2022-07-22T11:26:52;7.60;;;6.90;;
47329;SDS011;33060;50.178;7.570;2022-07-22T11:29:27;7.75;;;6.65;;
47329;SDS011;33060;50.178;7.570;2022-07-22T11:32:02;7.72;;;6.93;;
47329;SDS011;33060;50.178;7.570;2022-07-22T11:34:31;7.38;;;6.78;;
47329;SDS011;33060;50.178;7.570;2022-07-22T11:36:58;8.02;;;7.22;;
47329;SDS011;33060;50.178;7.570;2022-07-22T11:39:26;7.85;;;7.15;;
47329;SDS011;33060;50.178;7.570;2022-07-22T11:41:55;7.90;;;7.20;;
47329;SDS011;33060;50.178;7.570;2022-07-22T11:44:24;7.50;;;6.85;;
47329;SDS011;33060;50.178;7.570;2022-07-22T11:46:53;6.75;;;6.20;;
47329;SDS011;33060;50.178;7.570;2022-07-22T11:49:25;7.35;;;6.75;;
47329;SDS011;33060;50.178;7.570;2022-07-22T11:51:53;7.05;;;6.28;;
47329;SDS011;33060;50.178;7.570;2022-07-22T11:54:20;7.47;;;6.78;;
47329;SDS011;33060;50.178;7.570;2022-07-22T11:56:47;6.78;;;6.10;;
47329;SDS011;33060;50.178;7.570;2022-07-22T11:59:22;7.72;;;7.03;;
47329;SDS011;33060;50.178;7.570;2022-07-22T12:01:48;7.65;;;6.95;;
47329;SDS011;33060;50.178;7.570;2022-07-22T12:04:19;7.82;;;7.07;;
47329;SDS011;33060;50.178;7.570;2022-07-22T12:06:48;7.55;;;6.78;;
47329;SDS011;33060;50.178;7.570;2022-07-22T12:09:16;7.63;;;6.90;;
47329;SDS011;33060;50.178;7.570;2022-07-22T12:11:57;8.02;;;6.53;;
47329;SDS011;33060;50.178;7.570;2022-07-22T12:14:34;6.78;;;6.18;;
47329;SDS011;33060;50.178;7.570;2022-07-22T12:17:03;8.07;;;7.18;;
47329;SDS011;33060;50.178;7.570;2022-07-22T12:19:32;7.57;;;6.88;;
47329;SDS011;33060;50.178;7.570;2022-07-22T12:22:04;7.43;;;6.60;;
47329;SDS011;33060;50.178;7.570;2022-07-22T12:24:37;7.22;;;6.53;;
47329;SDS011;33060;50.178;7.570;2022-07-22T12:32:07;7.75;;;6.95;;
47329;SDS011;33060;50.178;7.570;2022-07-22T12:40:22;7.88;;;7.00;;
47329;SDS011;33060;50.178;7.570;2022-07-22T12:42:45;9.68;;;6.93;;
47329;SDS011;33060;50.178;7.570;2022-07-22T12:45:26;7.05;;;6.45;;
47329;SDS011;33060;50.178;7.570;2022-07-22T12:48:04;7.20;;;6.60;;
47329;SDS011;33060;50.178;7.570;2022-07-22T12:50:35;7.30;;;6.60;;
47329;SDS011;33060;50.178;7.570;2022-07-22T12:53:08;7.38;;;6.68;;
47329;SDS011;33060;50.178;7.570;2022-07-22T12:55:48;7.18;;;6.50;;
47329;SDS011;33060;50.178;7.570;2022-07-22T12:58:18;7.38;;;6.68;;
47329;SDS011;33060;50.178;7.570;2022-07-22T13:00:48;7.53;;;6.78;;
47329;SDS011;33060;50.178;7.570;2022-07-22T13:03:17;7.95;;;7.10;;
47329;SDS011;33060;50.178;7.570;2022-07-22T13:05:49;8.13;;;7.32;;
47329;SDS011;33060;50.178;7.570;2022-07-22T13:08:17;7.32;;;6.65;;
47329;SDS011;33060;50.178;7.570;2022-07-22T13:10:47;9.63;;;6.75;;
47329;SDS011;33060;50.178;7.570;2022-07-22T13:13:14;7.20;;;6.60;;
47329;SDS011;33060;50.178;7.570;2022-07-22T13:15:40;7.30;;;6.70;;
47329;SDS011;33060;50.178;7.570;2022-07-22T13:18:07;7.80;;;6.97;;
47329;SDS011;33060;50.178;7.570;2022-07-22T13:20:34;7.95;;;7.18;;
47329;SDS011;33060;50.178;7.570;2022-07-22T13:23:01;6.93;;;6.22;;
47329;SDS011;33060;50.178;7.570;2022-07-22T13:25:28;8.80;;;6.95;;
47329;SDS011;33060;50.178;7.570;2022-07-22T13:27:55;7.80;;;7.10;;
47329;SDS011;33060;50.178;7.570;2022-07-22T13:30:21;7.32;;;6.72;;
47329;SDS011;33060;50.178;7.570;2022-07-22T13:32:49;7.40;;;6.70;;
47329;SDS011;33060;50.178;7.570;2022-07-22T13:35:17;7.15;;;6.45;;
47329;SDS011;33060;50.178;7.570;2022-07-22T13:37:44;7.28;;;6.57;;
47329;SDS011;33060;50.178;7.570;2022-07-22T13:40:11;7.03;;;6.43;;
47329;SDS011;33060;50.178;7.570;2022-07-22T13:42:39;7.45;;;6.75;;
47329;SDS011;33060;50.178;7.570;2022-07-22T13:45:06;7.72;;;7.03;;
47329;SDS011;33060;50.178;7.570;2022-07-22T13:47:34;8.05;;;7.25;;
47329;SDS011;33060;50.178;7.570;2022-07-22T13:50:02;7.90;;;7.07;;
47329;SDS011;33060;50.178;7.570;2022-07-22T13:52:29;7.47;;;6.78;;
47329;SDS011;33060;50.178;7.570;2022-07-22T13:54:55;7.35;;;6.65;;
47329;SDS011;33060;50.178;7.570;2022-07-22T13:57:22;7.38;;;6.63;;
47329;SDS011;33060;50.178;7.570;2022-07-22T13:59:49;7.45;;;6.75;;
47329;SDS011;33060;50.178;7.570;2022-07-22T14:02:16;7.53;;;6.80;;
47329;SDS011;33060;50.178;7.570;2022-07-22T14:04:43;7.32;;;6.60;;
47329;SDS011;33060;50.178;7.570;2022-07-22T14:07:10;7.18;;;6.50;;
47329;SDS011;33060;50.178;7.570;2022-07-22T14:09:38;7.25;;;6.55;;
47329;SDS011;33060;50.178;7.570;2022-07-22T14:12:09;7.18;;;6.57;;
47329;SDS011;33060;50.178;7.570;2022-07-22T14:14:36;7.00;;;6.32;;
47329;SDS011;33060;50.178;7.570;2022-07-22T14:17:02;7.38;;;6.63;;
47329;SDS011;33060;50.178;7.570;2022-07-22T14:19:29;7.53;;;6.65;;
47329;SDS011;33060;50.178;7.570;2022-07-22T14:21:56;7.80;;;6.93;;
47329;SDS011;33060;50.178;7.570;2022-07-22T14:24:23;7.32;;;6.60;;
47329;SDS011;33060;50.178;7.570;2022-07-22T14:26:51;7.35;;;6.68;;
47329;SDS011;33060;50.178;7.570;2022-07-22T14:29:17;7.95;;;6.75;;
47329;SDS011;33060;50.178;7.570;2022-07-22T14:31:44;7.22;;;6.53;;
47329;SDS011;33060;50.178;7.570;2022-07-22T14:34:12;7.53;;;6.88;;
47329;SDS011;33060;50.178;7.570;2022-07-22T14:36:39;7.63;;;6.88;;
47329;SDS011;33060;50.178;7.570;2022-07-22T14:39:06;7.57;;;6.57;;
47329;SDS011;33060;50.178;7.570;2022-07-22T14:41:32;7.50;;;6.72;;
47329;SDS011;33060;50.178;7.570;2022-07-22T14:43:59;8.05;;;6.63;;
47329;SDS011;33060;50.178;7.570;2022-07-22T14:46:26;7.70;;;7.00;;
47329;SDS011;33060;50.178;7.570;2022-07-22T14:48:53;10.93;;;6.43;;
47329;SDS011;33060;50.178;7.570;2022-07-22T14:51:20;6.97;;;6.28;;
47329;SDS011;33060;50.178;7.570;2022-07-22T14:53:48;7.15;;;6.47;;
47329;SDS011;33060;50.178;7.570;2022-07-22T14:56:16;7.30;;;6.60;;
47329;SDS011;33060;50.178;7.570;2022-07-22T14:58:42;7.30;;;6.60;;
47329;SDS011;33060;50.178;7.570;2022-07-22T15:01:09;8.23;;;6.95;;
47329;SDS011;33060;50.178;7.570;2022-07-22T15:03:40;7.57;;;6.88;;
47329;SDS011;33060;50.178;7.570;2022-07-22T15:06:07;7.05;;;6.13;;
47329;SDS011;33060;50.178;7.570;2022-07-22T15:08:35;7.28;;;6.40;;
47329;SDS011;33060;50.178;7.570;2022-07-22T15:11:04;7.95;;;6.70;;
47329;SDS011;33060;50.178;7.570;2022-07-22T15:13:31;7.20;;;6.53;;
47329;SDS011;33060;50.178;7.570;2022-07-22T15:15:58;7.05;;;6.45;;
47329;SDS011;33060;50.178;7.570;2022-07-22T15:18:25;7.32;;;6.60;;
47329;SDS011;33060;50.178;7.570;2022-07-22T15:20:52;6.53;;;5.93;;
47329;SDS011;33060;50.178;7.570;2022-07-22T15:23:24;6.80;;;6.07;;
47329;SDS011;33060;50.178;7.570;2022-07-22T15:25:53;6.88;;;5.97;;
47329;SDS011;33060;50.178;7.570;2022-07-22T15:28:20;7.35;;;6.65;;
47329;SDS011;33060;50.178;7.570;2022-07-22T15:31:03;7.68;;;6.97;;
47329;SDS011;33060;50.178;7.570;2022-07-22T15:33:30;7.22;;;6.63;;
47329;SDS011;33060;50.178;7.570;2022-07-22T15:36:06;7.07;;;6.47;;
47329;SDS011;33060;50.178;7.570;2022-07-22T15:38:36;7.38;;;6.68;;
47329;SDS011;33060;50.178;7.570;2022-07-22T15:41:04;7.13;;;6.38;;
47329;SDS011;33060;50.178;7.570;2022-07-22T15:43:31;6.57;;;5.97;;